Time;durP1;ratioP1;P1;durP2;ratioP2;P2;SDS_P1;SDS_P2;PMS_P1;PMS_P2;Temp;Humidity;BMP_temperature;BMP_pressure;BME280_temperature;BME280_humidity;BME280_pressure;Samples;Min_cycle;Max_cycle;Signal;HPM_P1;HPM_P2
2022/10/07 00:00:03;;;;;;;7.03;3.17;;;;;;;6.28;100.00;102047.28;699555;28;1170;-69
2022/10/07 00:00:24;;;;;;;8.27;3.42;;;;;;;6.24;100.00;102053.19;697673;28;1170;-69
2022/10/07 00:00:45;;;;;;;7.37;3.40;;;;;;;6.21;100.00;102042.69;697763;28;1079;-69
2022/10/07 00:01:06;;;;;;;6.97;3.60;;;;;;;6.20;100.00;102042.66;695775;28;1162;-69
2022/10/07 00:01:27;;;;;;;8.05;3.75;;;;;;;6.18;100.00;102049.50;696534;28;1070;-69
2022/10/07 00:01:48;;;;;;;8.43;3.58;;;;;;;6.17;100.00;102055.53;694559;28;4531;-68
2022/10/07 00:02:08;;;;;;;8.82;3.45;;;;;;;6.16;100.00;102049.44;694928;28;1521;-69
2022/10/07 00:02:29;;;;;;;7.33;3.40;;;;;;;6.21;100.00;102042.69;693499;28;1080;-68
2022/10/07 00:02:49;;;;;;;8.45;3.30;;;;;;;6.32;100.00;102047.41;694200;28;1307;-68
2022/10/07 00:03:10;;;;;;;10.47;3.57;;;;;;;6.30;100.00;102048.22;694071;28;1119;-69
2022/10/07 00:03:31;;;;;;;7.83;3.60;;;;;;;6.30;100.00;102043.03;693891;28;1158;-69
2022/10/07 00:03:51;;;;;;;8.30;3.50;;;;;;;6.28;100.00;102043.81;694555;28;1459;-67
2022/10/07 00:04:12;;;;;;;8.60;3.30;;;;;;;6.25;100.00;102046.28;696208;28;1103;-69
2022/10/07 00:04:33;;;;;;;6.93;3.10;;;;;;;6.22;100.00;102038.41;696595;28;1811;-69
2022/10/07 00:04:53;;;;;;;7.60;3.67;;;;;;;6.23;100.00;102040.16;694974;28;4427;-68
2022/10/07 00:05:14;;;;;;;8.23;3.83;;;;;;;6.26;100.00;102043.75;698097;28;1162;-69
2022/10/07 00:05:34;;;;;;;7.13;3.20;;;;;;;6.32;100.00;102044.81;695464;28;1269;-68
2022/10/07 00:06:10;;;;;;;6.78;3.20;;;;;;;6.24;100.00;102040.19;695948;28;1577;-68
2022/10/07 00:06:30;;;;;;;7.45;3.30;;;;;;;6.18;100.00;102041.72;696228;28;1138;-69
2022/10/07 00:06:50;;;;;;;8.63;3.40;;;;;;;6.20;100.00;102034.84;696713;28;1098;-68
2022/10/07 00:07:13;;;;;;;7.33;3.37;;;;;;;6.19;100.00;102043.47;695091;28;1244;-69
2022/10/07 00:07:34;;;;;;;7.22;3.30;;;;;;;6.17;100.00;102038.22;696789;28;1174;-69
2022/10/07 00:07:54;;;;;;;6.43;3.20;;;;;;;6.20;100.00;102045.25;696786;28;4237;-69
2022/10/07 00:08:15;;;;;;;7.97;3.57;;;;;;;6.20;100.00;102043.53;696874;28;1101;-69
2022/10/07 00:08:36;;;;;;;6.78;3.20;;;;;;;6.19;100.00;102039.19;697646;28;1209;-68
2022/10/07 00:08:58;;;;;;;8.50;3.30;;;;;;;6.23;100.00;102043.66;696064;28;1186;-69
2022/10/07 00:09:18;;;;;;;7.47;3.67;;;;;;;6.19;100.00;102038.28;697471;28;1022;-69
2022/10/07 00:09:39;;;;;;;6.82;3.40;;;;;;;6.19;100.00;102033.97;696548;28;1500;-68
2022/10/07 00:10:00;;;;;;;8.20;3.50;;;;;;;6.24;100.00;102039.34;696284;28;1412;-69
2022/10/07 00:10:20;;;;;;;7.45;3.42;;;;;;;6.23;100.00;102040.16;696400;28;1460;-68
2022/10/07 00:10:42;;;;;;;8.87;3.53;;;;;;;6.18;100.00;102031.34;695019;28;4351;-69
2022/10/07 00:11:07;;;;;;;8.43;3.50;;;;;;;6.22;100.00;102036.69;693186;28;1321;-69
2022/10/07 00:11:28;;;;;;;7.18;3.22;;;;;;;6.27;100.00;102036.84;694235;28;1272;-69
2022/10/07 00:11:48;;;;;;;8.00;3.30;;;;;;;6.21;100.00;102041.81;695116;28;1206;-68
2022/10/07 00:12:10;;;;;;;7.97;3.50;;;;;;;6.19;100.00;102036.59;693434;28;1091;-68
2022/10/07 00:12:30;;;;;;;9.90;3.58;;;;;;;6.25;100.00;102038.50;695182;28;1162;-69
2022/10/07 00:12:50;;;;;;;9.23;3.40;;;;;;;6.25;100.00;102036.78;696740;28;1138;-69
2022/10/07 00:13:11;;;;;;;7.17;3.30;;;;;;;6.30;100.00;102039.56;695743;28;1202;-68
2022/10/07 00:13:32;;;;;;;6.77;3.47;;;;;;;6.28;100.00;102039.47;697078;28;1527;-69
2022/10/07 00:13:55;;;;;;;6.97;3.30;;;;;;;6.24;100.00;102035.00;694404;28;4536;-69
2022/10/07 00:14:16;;;;;;;7.97;3.30;;;;;;;6.28;100.00;102038.59;693397;28;2046;-68
2022/10/07 00:14:36;;;;;;;7.45;3.47;;;;;;;6.24;100.00;102035.00;693648;28;1289;-69
2022/10/07 00:14:56;;;;;;;7.93;3.57;;;;;;;6.26;100.00;102027.28;693759;28;1306;-69
2022/10/07 00:15:18;;;;;;;9.97;3.30;;;;;;;6.22;100.00;102033.22;693494;28;1380;-68
2022/10/07 00:15:38;;;;;;;9.60;3.80;;;;;;;6.26;100.00;102029.91;693536;28;1392;-69
2022/10/07 00:16:06;;;;;;;8.23;3.57;;;;;;;6.28;100.00;102034.28;694627;28;1910;-69
2022/10/07 00:16:32;;;;;;;8.18;3.60;;;;;;;6.24;100.00;102036.72;696692;28;1126;-69
2022/10/07 00:16:53;;;;;;;9.02;3.38;;;;;;;6.22;100.00;102028.03;697010;28;4264;-68
2022/10/07 00:17:13;;;;;;;8.03;3.10;;;;;;;6.24;100.00;102032.41;695314;28;1129;-69
2022/10/07 00:17:33;;;;;;;7.55;3.28;;;;;;;6.28;100.00;102030.81;698262;28;1376;-69
2022/10/07 00:17:54;;;;;;;7.27;3.27;;;;;;;6.27;100.00;102032.53;699460;28;1293;-69
2022/10/07 00:18:14;;;;;;;7.60;3.40;;;;;;;6.24;100.00;102036.72;696157;28;1249;-69
2022/10/07 00:18:36;;;;;;;7.80;3.50;;;;;;;6.22;100.00;102034.09;695186;28;1274;-68
2022/10/07 00:18:59;;;;;;;7.32;3.38;;;;;;;6.20;100.00;102027.94;694018;28;1462;-69
2022/10/07 00:19:19;;;;;;;8.68;4.00;;;;;;;6.22;100.00;102033.22;692472;28;1350;-69
2022/10/07 00:19:40;;;;;;;9.00;3.97;;;;;;;6.21;100.00;102031.44;691002;28;4543;-69
2022/10/07 00:20:00;;;;;;;6.82;3.55;;;;;;;6.18;100.00;102024.41;691189;28;1310;-68
2022/10/07 00:20:20;;;;;;;6.77;3.40;;;;;;;6.22;100.00;102033.22;692090;28;1331;-68
2022/10/07 00:20:41;;;;;;;7.53;3.40;;;;;;;6.21;100.00;102032.31;692087;28;1396;-69
2022/10/07 00:21:06;;;;;;;7.33;3.60;;;;;;;6.21;100.00;102028.84;694630;28;1531;-68
2022/10/07 00:21:29;;;;;;;6.47;3.30;;;;;;;6.21;100.00;102028.84;694082;28;1257;-68
2022/10/07 00:21:50;;;;;;;7.25;3.05;;;;;;;6.25;100.00;102030.72;693138;28;1285;-68
2022/10/07 00:22:10;;;;;;;6.70;3.30;;;;;;;6.25;100.00;102028.13;692256;28;1045;-69
2022/10/07 00:22:31;;;;;;;8.68;3.92;;;;;;;6.21;100.00;102034.03;692821;28;1183;-69
2022/10/07 00:22:52;;;;;;;7.67;3.57;;;;;;;6.19;100.00;102023.59;691836;28;4265;-69
2022/10/07 00:23:12;;;;;;;6.03;3.10;;;;;;;6.21;100.00;102021.94;692534;28;1379;-69
2022/10/07 00:23:33;;;;;;;7.07;3.53;;;;;;;6.21;100.00;102028.84;692769;28;1195;-69
2022/10/07 00:23:54;;;;;;;7.18;3.25;;;;;;;6.18;100.00;102027.00;693048;28;1226;-68
2022/10/07 00:24:14;;;;;;;7.38;3.33;;;;;;;6.24;100.00;102022.03;698289;28;1333;-69
2022/10/07 00:24:35;;;;;;;6.77;3.47;;;;;;;6.28;100.00;102028.22;699223;28;1234;-69
2022/10/07 00:24:55;;;;;;;7.30;3.38;;;;;;;6.27;100.00;102031.63;695726;28;1296;-69
2022/10/07 00:25:15;;;;;;;8.50;3.60;;;;;;;6.25;100.00;102026.41;695326;28;1450;-69
2022/10/07 00:25:36;;;;;;;8.70;3.47;;;;;;;6.24;100.00;102019.44;696315;28;4532;-68
2022/10/07 00:26:04;;;;;;;7.97;3.20;;;;;;;6.19;100.00;102020.09;697270;28;1316;-68
2022/10/07 00:26:27;;;;;;;8.32;3.45;;;;;;;6.16;100.00;102020.00;696481;28;1489;-68
2022/10/07 00:26:48;;;;;;;8.35;3.60;;;;;;;6.23;100.00;102025.47;696601;28;1140;-69
2022/10/07 00:27:08;;;;;;;7.20;3.13;;;;;;;6.28;100.00;102025.63;696583;28;1315;-71
2022/10/07 00:27:28;;;;;;;7.20;3.10;;;;;;;6.27;100.00;102021.25;696177;28;1725;-69
2022/10/07 00:27:49;;;;;;;7.65;3.13;;;;;;;6.27;100.00;102029.03;696859;28;1309;-68
2022/10/07 00:28:10;;;;;;;8.60;3.37;;;;;;;6.18;100.00;102027.00;696420;28;1087;-68
2022/10/07 00:28:30;;;;;;;6.28;3.30;;;;;;;6.17;100.00;102026.97;696417;28;3604;-69
2022/10/07 00:28:51;;;;;;;7.35;3.20;;;;;;;6.23;100.00;102020.28;696950;28;4308;-68
2022/10/07 00:29:12;;;;;;;7.68;3.63;;;;;;;6.34;100.00;102018.06;693362;28;1147;-69
2022/10/07 00:29:32;;;;;;;8.13;3.63;;;;;;;6.29;100.00;102022.19;688164;28;1221;-68
2022/10/07 00:29:52;;;;;;;7.80;3.40;;;;;;;6.30;100.00;102018.78;687772;28;1220;-69
2022/10/07 00:30:13;;;;;;;6.77;3.27;;;;;;;6.29;100.00;102022.19;688435;28;1219;-69
2022/10/07 00:30:33;;;;;;;7.32;3.35;;;;;;;6.21;100.00;102018.47;690787;28;1424;-69
2022/10/07 00:31:03;;;;;;;6.73;3.30;;;;;;;6.13;100.00;102023.38;691226;28;1412;-68
2022/10/07 00:31:27;;;;;;;6.68;3.30;;;;;;;6.13;100.00;102010.38;695458;28;1744;-68
2022/10/07 00:31:48;;;;;;;6.65;3.20;;;;;;;6.27;100.00;102016.97;698167;28;4543;-68
2022/10/07 00:32:08;;;;;;;7.37;3.33;;;;;;;6.26;100.00;102019.50;697182;28;1141;-68
2022/10/07 00:32:29;;;;;;;7.70;3.28;;;;;;;6.24;100.00;102015.97;696375;28;1146;-69
2022/10/07 00:32:49;;;;;;;7.23;3.10;;;;;;;6.29;100.00;102017.88;697274;28;1195;-69
2022/10/07 00:33:09;;;;;;;7.27;3.30;;;;;;;6.29;100.00;102009.22;697761;28;1312;-69
2022/10/07 00:33:34;;;;;;;6.67;3.30;;;;;;;6.27;100.00;102010.88;694371;28;1202;-69
2022/10/07 00:33:55;;;;;;;7.38;3.15;;;;;;;6.19;100.00;102010.63;693997;28;1250;-68
2022/10/07 00:34:16;;;;;;;9.13;3.20;;;;;;;6.14;100.00;102009.56;696091;28;1396;-69
2022/10/07 00:34:37;;;;;;;6.97;3.20;;;;;;;6.14;100.00;102012.16;696797;28;4499;-69
2022/10/07 00:34:58;;;;;;;5.87;3.07;;;;;;;6.22;100.00;102012.44;698107;28;1226;-69
2022/10/07 00:35:18;;;;;;;6.75;3.08;;;;;;;6.28;100.00;102015.22;695957;28;1269;-68
2022/10/07 00:35:38;;;;;;;7.07;3.30;;;;;;;6.22;100.00;102013.31;695970;28;1478;-69
2022/10/07 00:35:59;;;;;;;7.30;3.38;;;;;;;6.13;100.00;102011.28;694438;28;1995;-68
2022/10/07 00:36:22;;;;;;;6.90;3.30;;;;;;;6.09;100.00;102006.81;696216;28;1454;-68
2022/10/07 00:36:45;;;;;;;7.75;3.17;;;;;;;6.14;100.00;102009.56;696345;28;1201;-69
2022/10/07 00:37:05;;;;;;;7.85;3.30;;;;;;;6.17;100.00;102012.25;691494;28;1618;-69
2022/10/07 00:37:26;;;;;;;7.22;3.40;;;;;;;6.19;100.00;102017.50;693534;28;1311;-69
2022/10/07 00:37:46;;;;;;;8.20;3.30;;;;;;;6.22;100.00;102012.44;690165;28;4453;-69
2022/10/07 00:38:06;;;;;;;6.97;3.10;;;;;;;6.21;100.00;102013.25;688355;28;1271;-68
2022/10/07 00:38:27;;;;;;;6.68;3.33;;;;;;;6.19;100.00;102012.31;687559;28;1292;-69
2022/10/07 00:39:09;;;;;;;7.03;3.40;;;;;;;6.22;100.00;102015.03;688460;28;1226;-69
2022/10/07 00:39:30;;;;;;;7.93;3.30;;;;;;;6.23;100.00;102016.78;688114;28;1075;-69
2022/10/07 00:39:50;;;;;;;7.53;3.20;;;;;;;6.27;100.00;102010.88;691685;28;1177;-69
2022/10/07 00:40:14;;;;;;;6.82;3.20;;;;;;;6.32;100.00;102014.50;690055;28;1218;-68
2022/10/07 00:40:34;;;;;;;5.97;3.40;;;;;;;6.29;100.00;102009.22;691079;28;1274;-69
2022/10/07 00:40:55;;;;;;;6.07;3.27;;;;;;;6.27;100.00;102010.88;687336;28;4261;-68
2022/10/07 00:41:19;;;;;;;6.80;3.17;;;;;;;6.23;100.00;102011.59;689311;28;1314;-68
2022/10/07 00:41:48;;;;;;;6.53;3.10;;;;;;;6.16;100.00;102017.41;690165;28;1444;-68
2022/10/07 00:42:12;;;;;;;10.32;3.15;;;;;;;6.09;100.00;102011.09;691438;28;1616;-69
2022/10/07 00:42:34;;;;;;;7.65;3.40;;;;;;;6.10;100.00;102008.56;694324;28;1239;-69
2022/10/07 00:42:54;;;;;;;6.95;3.10;;;;;;;6.10;100.00;102010.28;693335;28;1296;-68
2022/10/07 00:43:30;;;;;;;7.50;3.40;;;;;;;6.12;100.00;102014.69;692887;28;1239;-69
2022/10/07 00:43:50;;;;;;;7.53;3.33;;;;;;;6.16;100.00;102009.63;691190;28;4316;-69
2022/10/07 00:44:29;;;;;;;6.53;3.17;;;;;;;6.20;100.00;102007.16;698679;28;1162;-69
2022/10/07 00:44:50;;;;;;;8.27;3.17;;;;;;;6.22;100.00;102012.44;693953;28;1547;-69
2022/10/07 00:45:18;;;;;;;7.70;3.10;;;;;;;6.28;100.00;102010.03;693422;28;1158;-69
2022/10/07 00:45:38;;;;;;;6.75;3.15;;;;;;;6.28;100.00;102015.22;692731;28;1522;-69
2022/10/07 00:46:11;;;;;;;6.50;3.08;;;;;;;6.30;100.00;102009.25;694196;28;1401;-69
2022/10/07 00:46:37;;;;;;;7.22;3.45;;;;;;;6.29;100.00;102014.41;691000;28;1303;-69
2022/10/07 00:47:02;;;;;;;6.78;3.15;;;;;;;6.21;100.00;102011.53;693173;28;4961;-69
2022/10/07 00:47:33;;;;;;;7.50;3.03;;;;;;;6.12;100.00;102008.63;689634;28;1282;-68
2022/10/07 00:47:54;;;;;;;7.40;3.40;;;;;;;6.06;100.00;102004.09;692432;28;1273;-69
2022/10/07 00:48:19;;;;;;;6.25;3.20;;;;;;;6.10;100.00;102005.97;690428;28;1303;-68
2022/10/07 00:48:41;;;;;;;6.47;3.10;;;;;;;6.23;100.00;102003.78;691692;28;1373;-69
2022/10/07 00:49:08;;;;;;;8.13;3.20;;;;;;;6.33;100.00;102005.00;693215;28;1120;-68
2022/10/07 00:49:36;;;;;;;7.07;2.80;;;;;;;6.29;100.00;102006.63;695600;28;1182;-69
2022/10/07 00:50:16;;;;;;;7.55;3.20;;;;;;;6.26;100.00;102009.13;695516;28;5387;-68
2022/10/07 00:50:36;;;;;;;6.85;3.10;;;;;;;6.24;100.00;102005.56;695994;28;1313;-68
2022/10/07 00:50:59;;;;;;;6.68;3.25;;;;;;;6.21;100.00;102005.47;695649;28;1397;-69
2022/10/07 00:51:20;;;;;;;7.13;3.20;;;;;;;6.25;100.00;102010.81;694947;28;1278;-68
2022/10/07 00:51:42;;;;;;;6.33;3.13;;;;;;;6.29;100.00;102009.22;691646;28;1547;-69
2022/10/07 00:52:03;;;;;;;5.78;3.10;;;;;;;6.31;100.00;101999.75;689861;28;1187;-68
2022/10/07 00:52:26;;;;;;;6.67;2.97;;;;;;;6.23;100.00;102003.78;691907;28;1418;-68
2022/10/07 00:52:54;;;;;;;7.25;2.90;;;;;;;6.09;100.00;102006.81;693563;28;4290;-68
2022/10/07 00:53:14;;;;;;;7.03;3.10;;;;;;;5.96;100.00;102000.25;692117;28;1462;-69
2022/10/07 00:53:39;;;;;;;6.23;3.30;;;;;;;5.88;100.00;102006.88;690880;28;1350;-69
2022/10/07 00:54:02;;;;;;;7.40;3.20;;;;;;;5.93;100.00;102005.34;689263;28;2189;-69
2022/10/07 00:54:23;;;;;;;6.28;3.22;;;;;;;6.02;100.00;102002.22;686969;28;1198;-69
2022/10/07 00:54:44;;;;;;;6.22;3.30;;;;;;;6.08;100.00;102006.75;687546;28;5133;-68
2022/10/07 00:55:09;;;;;;;6.60;2.90;;;;;;;6.12;100.00;102004.31;689335;28;1231;-69
2022/10/07 00:55:30;;;;;;;9.43;3.35;;;;;;;6.15;100.00;102000.94;692589;28;1258;-68
2022/10/07 00:55:51;;;;;;;6.80;3.25;;;;;;;6.14;100.00;102005.25;694063;28;4599;-68
2022/10/07 00:56:13;;;;;;;6.57;3.20;;;;;;;6.04;100.00;102002.28;690222;28;1914;-68
2022/10/07 00:56:34;;;;;;;6.65;3.40;;;;;;;5.98;100.00;102002.94;689884;28;1282;-68
2022/10/07 00:56:54;;;;;;;7.00;3.57;;;;;;;6.06;100.00;101995.44;691702;28;1417;-68
2022/10/07 00:57:15;;;;;;;6.95;3.33;;;;;;;6.14;100.00;102000.03;693519;28;1499;-68
2022/10/07 00:57:37;;;;;;;7.30;3.20;;;;;;;6.15;100.00;101998.34;691464;28;1337;-68
2022/10/07 00:58:01;;;;;;;8.05;3.10;;;;;;;6.09;100.00;101993.84;690683;28;1282;-68
2022/10/07 00:58:23;;;;;;;6.95;3.20;;;;;;;6.08;100.00;101989.47;690655;28;1177;-68
2022/10/07 00:58:45;;;;;;;7.22;3.22;;;;;;;6.16;100.00;101994.91;689162;28;4293;-69
2022/10/07 00:59:06;;;;;;;7.45;3.30;;;;;;;6.20;100.00;101998.50;692202;28;1211;-69
2022/10/07 00:59:27;;;;;;;7.07;3.47;;;;;;;6.21;100.00;101998.56;692040;28;1369;-68
2022/10/07 00:59:48;;;;;;;5.97;3.22;;;;;;;6.19;100.00;101999.31;690693;28;1143;-69
2022/10/07 01:00:09;;;;;;;6.45;3.22;;;;;;;6.16;100.00;101991.44;691096;28;1080;-69
2022/10/07 01:00:30;;;;;;;5.63;3.30;;;;;;;6.05;100.00;101998.84;693815;28;1139;-69
2022/10/07 01:00:50;;;;;;;6.72;3.40;;;;;;;6.03;100.00;101996.19;691235;28;1209;-68
2022/10/07 01:01:11;;;;;;;6.77;3.10;;;;;;;6.02;100.00;101988.34;692190;28;1191;-69
2022/10/07 01:01:31;;;;;;;6.93;3.30;;;;;;;5.99;100.00;101991.72;694351;28;1230;-68
2022/10/07 01:01:52;;;;;;;7.15;3.28;;;;;;;5.99;100.00;101988.25;694706;28;4300;-68
2022/10/07 01:02:12;;;;;;;7.80;3.50;;;;;;;5.99;100.00;101991.72;695932;28;1273;-69
2022/10/07 01:02:33;;;;;;;8.68;3.38;;;;;;;6.07;100.00;101995.47;695646;28;1166;-69
2022/10/07 01:02:53;;;;;;;8.07;3.40;;;;;;;6.28;100.00;101986.66;695083;28;1209;-68
2022/10/07 01:03:14;;;;;;;6.87;2.90;;;;;;;6.38;100.00;101987.84;697914;28;1463;-68
2022/10/07 01:03:36;;;;;;;7.68;3.08;;;;;;;6.37;100.00;101983.50;697096;28;1281;-69
2022/10/07 01:03:56;;;;;;;7.18;3.15;;;;;;;6.32;100.00;101991.13;693924;28;1294;-70
2022/10/07 01:04:19;;;;;;;7.88;3.40;;;;;;;6.25;100.00;101986.56;692831;28;1427;-68
2022/10/07 01:04:41;;;;;;;8.05;3.47;;;;;;;6.16;100.00;101987.13;693395;28;4272;-69
2022/10/07 01:05:05;;;;;;;7.18;3.10;;;;;;;6.10;100.00;101986.91;693096;28;1437;-68
2022/10/07 01:05:25;;;;;;;5.90;2.83;;;;;;;6.12;100.00;101991.34;689223;28;1135;-69
2022/10/07 01:05:46;;;;;;;8.97;3.20;;;;;;;6.08;100.00;101991.19;691847;28;1147;-68
2022/10/07 01:06:09;;;;;;;8.13;3.35;;;;;;;6.02;100.00;101986.63;691618;28;1606;-68
2022/10/07 01:06:30;;;;;;;6.65;3.30;;;;;;;6.05;100.00;101978.06;692905;28;1104;-69
2022/10/07 01:06:50;;;;;;;7.68;3.50;;;;;;;6.03;100.00;101985.81;692947;28;1207;-68
2022/10/07 01:07:11;;;;;;;7.95;3.28;;;;;;;6.00;100.00;101983.13;690756;28;1457;-69
2022/10/07 01:07:31;;;;;;;7.73;3.20;;;;;;;5.94;100.00;101986.34;688558;28;1104;-68
2022/10/07 01:07:52;;;;;;;7.72;3.25;;;;;;;5.87;100.00;101983.47;688236;28;4374;-68
2022/10/07 01:08:14;;;;;;;7.25;3.28;;;;;;;5.87;100.00;101988.66;692053;28;1091;-68
2022/10/07 01:08:35;;;;;;;6.82;3.00;;;;;;;6.04;100.00;101984.13;690916;28;1266;-69
2022/10/07 01:08:56;;;;;;;6.47;3.10;;;;;;;6.18;100.00;101979.41;688196;28;1267;-68
2022/10/07 01:09:19;;;;;;;8.07;3.28;;;;;;;6.33;100.00;101979.03;688691;28;2204;-68
2022/10/07 01:09:40;;;;;;;8.10;3.13;;;;;;;6.50;100.00;101977.00;688425;28;1321;-68
2022/10/07 01:10:01;;;;;;;8.57;3.10;;;;;;;6.47;100.00;101977.78;688454;28;1389;-68
2022/10/07 01:10:27;;;;;;;8.02;3.17;;;;;;;6.40;100.00;101981.00;687755;28;1169;-69
2022/10/07 01:10:52;;;;;;;6.75;3.20;;;;;;;6.22;100.00;101976.97;688936;28;4458;-68
2022/10/07 01:11:18;;;;;;;5.53;2.70;;;;;;;6.20;100.00;101975.13;691368;28;1318;-69
2022/10/07 01:11:45;;;;;;;6.10;2.90;;;;;;;6.21;100.00;101984.69;694280;28;1328;-69
2022/10/07 01:12:15;;;;;;;6.75;3.10;;;;;;;6.27;100.00;101980.59;696804;28;1213;-67
2022/10/07 01:12:55;;;;;;;7.47;3.42;;;;;;;6.23;100.00;101977.81;696190;28;1458;-69
2022/10/07 01:13:25;;;;;;;7.45;3.00;;;;;;;6.27;100.00;101980.59;696108;28;1432;-68
2022/10/07 01:14:00;;;;;;;6.55;3.10;;;;;;;6.28;100.00;101981.47;693526;28;4631;-68
2022/10/07 01:14:39;;;;;;;6.05;2.85;;;;;;;6.28;100.00;101981.47;690208;28;1377;-69
2022/10/07 01:15:19;;;;;;;6.20;3.05;;;;;;;6.33;100.00;101972.13;687900;28;1291;-68
2022/10/07 01:15:58;;;;;;;8.77;3.45;;;;;;;6.31;100.00;101976.38;692198;28;1656;-68
2022/10/07 01:16:28;;;;;;;8.77;3.10;;;;;;;6.31;100.00;101971.19;689057;28;1906;-68
2022/10/07 01:17:07;;;;;;;8.90;3.17;;;;;;;6.20;100.00;101977.72;687025;28;4924;-68
2022/10/07 01:17:46;;;;;;;6.20;2.90;;;;;;;6.20;100.00;101975.13;690828;28;1210;-68
2022/10/07 01:18:22;;;;;;;8.40;3.20;;;;;;;6.22;100.00;101973.50;691601;28;1119;-67
2022/10/07 01:19:07;;;;;;;7.20;2.80;;;;;;;6.17;100.00;101973.31;698203;28;1071;-68
2022/10/07 01:19:58;;;;;;;8.57;3.17;;;;;;;6.21;100.00;101974.31;697844;28;1173;-68
2022/10/07 01:20:31;;;;;;;7.65;3.20;;;;;;;6.16;100.00;101971.53;699090;28;4950;-69
2022/10/07 01:21:00;;;;;;;7.43;3.03;;;;;;;6.11;100.00;101973.13;696938;28;1198;-68
2022/10/07 01:21:52;;;;;;;6.65;3.03;;;;;;;6.22;100.00;101971.75;697039;28;1471;-69
2022/10/07 01:22:43;;;;;;;7.47;3.05;;;;;;;6.23;100.00;101967.44;686724;28;1374;-68
2022/10/07 01:23:27;;;;;;;7.13;2.80;;;;;;;6.08;100.00;101973.88;681887;28;6012;-68
2022/10/07 01:24:14;;;;;;;6.88;3.40;;;;;;;6.00;100.00;101962.34;694296;28;2087;-68
2022/10/07 01:24:46;;;;;;;8.25;3.00;;;;;;;5.97;100.00;101967.41;695301;28;1332;-68
2022/10/07 01:25:26;;;;;;;6.78;2.90;;;;;;;5.99;100.00;101973.56;694436;28;2230;-69
2022/10/07 01:26:21;;;;;;;7.72;3.13;;;;;;;6.09;100.00;101967.88;697553;28;4444;-69
2022/10/07 01:26:50;;;;;;;5.68;2.85;;;;;;;6.19;100.00;101957.78;695976;28;1309;-67
2022/10/07 01:27:20;;;;;;;7.18;2.80;;;;;;;6.17;100.00;101964.66;691468;28;1242;-68
2022/10/07 01:27:49;;;;;;;7.55;3.00;;;;;;;6.09;100.00;101965.28;690756;28;1414;-68
2022/10/07 01:28:20;;;;;;;7.85;3.10;;;;;;;6.08;100.00;101958.31;689807;28;1278;-68
2022/10/07 01:28:45;;;;;;;6.82;2.67;;;;;;;6.05;100.00;101960.81;693496;28;4639;-69
2022/10/07 01:29:21;;;;;;;8.15;3.10;;;;;;;6.08;100.00;101960.91;692358;28;1607;-68
2022/10/07 01:29:54;;;;;;;8.85;2.90;;;;;;;6.13;100.00;101963.66;697201;28;1238;-68
2022/10/07 01:30:17;;;;;;;6.75;2.80;;;;;;;6.11;100.00;101963.59;693893;28;1407;-68
2022/10/07 01:30:43;;;;;;;7.65;2.70;;;;;;;6.12;100.00;101960.19;689404;28;1506;-69
2022/10/07 01:31:08;;;;;;;5.43;2.83;;;;;;;6.13;100.00;101958.44;686788;28;1449;-68
2022/10/07 01:31:37;;;;;;;6.57;2.90;;;;;;;6.08;100.00;101955.72;683871;28;1787;-69
2022/10/07 01:32:05;;;;;;;7.38;3.22;;;;;;;6.04;100.00;101953.84;683148;28;5020;-68
2022/10/07 01:32:35;;;;;;;6.40;2.90;;;;;;;6.08;100.00;101957.44;683331;28;2179;-68
2022/10/07 01:33:02;;;;;;;8.52;3.20;;;;;;;6.03;100.00;101954.66;683473;28;1404;-68
2022/10/07 01:33:28;;;;;;;6.80;2.78;;;;;;;5.94;100.00;101954.28;684497;28;1192;-68
2022/10/07 01:33:52;;;;;;;7.47;3.08;;;;;;;5.94;100.00;101951.69;684268;28;1101;-69
2022/10/07 01:34:18;;;;;;;5.45;2.75;;;;;;;6.05;100.00;101953.03;687116;28;1427;-69
2022/10/07 01:34:41;;;;;;;7.22;2.70;;;;;;;6.05;100.00;101952.13;687162;28;5483;-69
2022/10/07 01:35:06;;;;;;;5.95;2.70;;;;;;;6.06;100.00;101951.28;690866;28;1247;-68
2022/10/07 01:35:32;;;;;;;6.63;2.97;;;;;;;6.05;100.00;101949.53;690867;28;1164;-68
2022/10/07 01:35:56;;;;;;;6.40;2.90;;;;;;;6.03;100.00;101949.47;693636;28;1144;-69
2022/10/07 01:36:20;;;;;;;6.97;2.85;;;;;;;6.06;100.00;101949.56;692282;28;1910;-68
2022/10/07 01:36:46;;;;;;;7.65;3.00;;;;;;;6.13;100.00;101950.66;695904;28;1459;-69
2022/10/07 01:37:11;;;;;;;6.13;2.95;;;;;;;6.16;100.00;101948.16;693255;28;1162;-68
2022/10/07 01:37:34;;;;;;;7.05;2.65;;;;;;;6.13;100.00;101950.66;690876;28;1454;-69
2022/10/07 01:38:00;;;;;;;7.75;2.92;;;;;;;6.09;100.00;101949.69;690344;28;5243;-67
2022/10/07 01:38:25;;;;;;;7.68;3.00;;;;;;;6.03;100.00;101952.06;690695;28;1398;-68
2022/10/07 01:39:10;;;;;;;8.00;2.70;;;;;;;6.04;100.00;101946.06;687868;28;1519;-69
2022/10/07 01:39:37;;;;;;;5.80;2.70;;;;;;;6.15;100.00;101941.22;689126;28;1274;-68
2022/10/07 01:40:04;;;;;;;6.22;2.78;;;;;;;6.19;100.00;101939.59;687336;28;1266;-68
2022/10/07 01:40:30;;;;;;;7.52;2.78;;;;;;;6.16;100.00;101949.88;691297;28;1262;-69
2022/10/07 01:40:57;;;;;;;6.53;2.95;;;;;;;6.18;100.00;101948.25;691012;28;4442;-69
2022/10/07 01:41:20;;;;;;;6.80;2.80;;;;;;;6.13;100.00;101948.06;690766;28;1230;-68
2022/10/07 01:41:40;;;;;;;7.35;2.80;;;;;;;6.11;100.00;101947.16;691441;28;1370;-69
2022/10/07 01:42:02;;;;;;;5.47;2.70;;;;;;;6.10;100.00;101945.38;693786;28;1389;-71
2022/10/07 01:42:25;;;;;;;6.60;2.70;;;;;;;6.07;100.00;101945.28;693180;28;1104;-68
2022/10/07 01:42:46;;;;;;;7.18;2.83;;;;;;;6.02;100.00;101952.88;692358;28;1163;-68
2022/10/07 01:43:07;;;;;;;6.75;2.88;;;;;;;5.95;100.00;101948.28;693067;28;1198;-68
2022/10/07 01:43:31;;;;;;;5.55;2.83;;;;;;;5.96;100.00;101947.47;693894;28;1372;-68
2022/10/07 01:43:53;;;;;;;6.35;2.80;;;;;;;5.90;100.00;101948.13;690204;28;4398;-68
2022/10/07 01:44:13;;;;;;;7.90;2.83;;;;;;;5.89;100.00;101953.28;692326;28;1274;-68
2022/10/07 01:44:34;;;;;;;6.70;2.90;;;;;;;5.95;100.00;101948.28;692082;28;1445;-68
2022/10/07 01:44:57;;;;;;;6.70;2.78;;;;;;;5.96;100.00;101950.06;692357;28;1316;-68
2022/10/07 01:45:24;;;;;;;6.60;2.67;;;;;;;6.02;100.00;101944.22;691336;28;1357;-69
2022/10/07 01:45:45;;;;;;;5.97;2.60;;;;;;;6.08;100.00;101947.06;693088;28;1175;-69
2022/10/07 01:46:08;;;;;;;6.30;2.80;;;;;;;6.05;100.00;101942.63;692755;28;2095;-69
2022/10/07 01:46:32;;;;;;;6.68;2.90;;;;;;;6.02;100.00;101941.63;694886;28;1327;-68
2022/10/07 01:46:54;;;;;;;7.28;2.78;;;;;;;5.99;100.00;101937.22;693683;28;4418;-68
2022/10/07 01:47:15;;;;;;;7.80;2.77;;;;;;;5.96;100.00;101948.34;689963;28;1282;-68
2022/10/07 01:47:36;;;;;;;5.65;2.60;;;;;;;5.95;100.00;101941.41;688374;28;1326;-68
2022/10/07 01:47:58;;;;;;;7.43;2.78;;;;;;;5.95;100.00;101941.41;684884;28;1461;-68
2022/10/07 01:48:18;;;;;;;6.13;2.50;;;;;;;5.95;100.00;101944.00;682179;28;2077;-69
2022/10/07 01:48:38;;;;;;;6.43;2.60;;;;;;;5.91;100.00;101942.13;685692;28;1409;-68
2022/10/07 01:48:59;;;;;;;7.17;2.70;;;;;;;5.86;100.00;101937.59;685855;28;1405;-68
2022/10/07 01:49:21;;;;;;;7.38;2.75;;;;;;;5.86;100.00;101935.88;682321;28;1714;-68
2022/10/07 01:49:41;;;;;;;6.00;2.60;;;;;;;5.82;100.00;101930.53;683260;28;4300;-68
2022/10/07 01:50:10;;;;;;;6.97;2.63;;;;;;;5.76;100.00;101939.88;685737;28;1512;-69
2022/10/07 01:50:31;;;;;;;5.25;2.55;;;;;;;5.81;100.00;101945.22;687954;28;1237;-68
2022/10/07 01:50:53;;;;;;;7.57;2.63;;;;;;;5.86;100.00;101935.88;687610;28;1428;-69
2022/10/07 01:51:16;;;;;;;8.48;2.78;;;;;;;5.83;100.00;101942.66;686492;28;1226;-68
2022/10/07 01:51:39;;;;;;;6.35;2.83;;;;;;;5.80;100.00;101935.66;688563;28;1139;-68
2022/10/07 01:52:22;;;;;;;6.65;2.60;;;;;;;5.84;100.00;101939.25;687952;28;1504;-68
2022/10/07 01:52:49;;;;;;;6.53;2.60;;;;;;;5.88;100.00;101938.53;672703;29;4506;-69
2022/10/07 01:53:39;;;;;;;6.53;2.80;;;;;;;5.82;100.00;101938.31;674502;29;1411;-69
2022/10/07 01:54:27;;;;;;;7.07;3.10;;;;;;;5.76;100.00;101939.88;682305;28;1423;-68
2022/10/07 01:55:27;;;;;;;4.68;2.55;;;;;;;5.79;100.00;101933.91;692078;28;4977;-68
2022/10/07 01:56:10;;;;;;;5.97;2.67;;;;;;;5.77;100.00;101932.94;690527;28;4545;-68
2022/10/07 01:56:44;;;;;;;7.15;3.03;;;;;;;5.72;100.00;101935.41;689693;28;1361;-68
2022/10/07 01:57:06;;;;;;;5.70;2.63;;;;;;;5.73;100.00;101925.88;690409;28;1276;-68